Atlantic Beach, South Carolina
Current Conditions -  °F | °C
As of 2:53 PM on Monday 24 Nov 2014 (Local Time) from KCRE Reporting Station
Haze Haze  
Wind Chill: 19°   Ceiling: 300
Heat Index: 19°   Visibility: 3mi
Dew Point: 19°   Wind: 16mph
Humidity: 97%   Direction: 200°SSW
Pressure: 29.84"   Gusts: NA
Location:  33.8371°N, 78.6471°W
Report Text: KCRE 241953Z 20014KT 3SM BR OVC003 19/19 A2984 RMK AO1 SLP105 T01940189
Loading
Personal Weather Stations






























Interactive Weather Map New forecast layout! Learn more

10-Day Weather Forecast

Advertisements
Track Severe Weather on mobile